sensor_id;sensor_type;location;lat;lon;timestamp;P1;durP1;ratioP1;P2;durP2;ratioP2
7719;SDS011;3902;49.474;8.616;2022-08-21T00:00:49;3.33;;;2.70;;
7719;SDS011;3902;49.474;8.616;2022-08-21T00:03:15;3.87;;;3.50;;
7719;SDS011;3902;49.474;8.616;2022-08-21T00:05:45;2.93;;;2.70;;
7719;SDS011;3902;49.474;8.616;2022-08-21T00:08:15;3.20;;;2.80;;
7719;SDS011;3902;49.474;8.616;2022-08-21T00:10:42;3.00;;;2.80;;
7719;SDS011;3902;49.474;8.616;2022-08-21T00:13:08;4.73;;;3.33;;
7719;SDS011;3902;49.474;8.616;2022-08-21T00:15:35;3.17;;;2.73;;
7719;SDS011;3902;49.474;8.616;2022-08-21T00:18:03;3.40;;;3.10;;
7719;SDS011;3902;49.474;8.616;2022-08-21T00:20:29;3.30;;;3.00;;
7719;SDS011;3902;49.474;8.616;2022-08-21T00:22:55;4.20;;;3.00;;
7719;SDS011;3902;49.474;8.616;2022-08-21T00:25:21;2.90;;;2.50;;
7719;SDS011;3902;49.474;8.616;2022-08-21T00:27:46;3.33;;;2.53;;
7719;SDS011;3902;49.474;8.616;2022-08-21T00:30:13;3.80;;;3.17;;
7719;SDS011;3902;49.474;8.616;2022-08-21T00:32:40;3.13;;;2.83;;
7719;SDS011;3902;49.474;8.616;2022-08-21T00:35:07;3.10;;;2.80;;
7719;SDS011;3902;49.474;8.616;2022-08-21T00:37:36;3.20;;;2.83;;
7719;SDS011;3902;49.474;8.616;2022-08-21T00:40:05;3.33;;;3.00;;
7719;SDS011;3902;49.474;8.616;2022-08-21T00:42:33;6.20;;;2.70;;
7719;SDS011;3902;49.474;8.616;2022-08-21T00:44:59;2.97;;;2.67;;
7719;SDS011;3902;49.474;8.616;2022-08-21T00:47:25;3.57;;;3.27;;
7719;SDS011;3902;49.474;8.616;2022-08-21T00:49:50;3.30;;;3.00;;
7719;SDS011;3902;49.474;8.616;2022-08-21T00:52:21;3.43;;;3.10;;
7719;SDS011;3902;49.474;8.616;2022-08-21T00:54:49;3.37;;;3.07;;
7719;SDS011;3902;49.474;8.616;2022-08-21T00:57:19;3.57;;;3.27;;
7719;SDS011;3902;49.474;8.616;2022-08-21T00:59:48;3.20;;;3.00;;
7719;SDS011;3902;49.474;8.616;2022-08-21T01:02:16;2.80;;;2.50;;
7719;SDS011;3902;49.474;8.616;2022-08-21T01:04:42;4.17;;;3.00;;
7719;SDS011;3902;49.474;8.616;2022-08-21T01:07:08;5.60;;;2.97;;
7719;SDS011;3902;49.474;8.616;2022-08-21T01:09:34;3.77;;;3.33;;
7719;SDS011;3902;49.474;8.616;2022-08-21T01:12:01;2.73;;;2.50;;
7719;SDS011;3902;49.474;8.616;2022-08-21T01:14:27;4.50;;;3.10;;
7719;SDS011;3902;49.474;8.616;2022-08-21T01:16:54;3.43;;;3.13;;
7719;SDS011;3902;49.474;8.616;2022-08-21T01:19:21;4.40;;;3.40;;
7719;SDS011;3902;49.474;8.616;2022-08-21T01:21:48;4.00;;;2.70;;
7719;SDS011;3902;49.474;8.616;2022-08-21T01:24:14;3.70;;;3.27;;
7719;SDS011;3902;49.474;8.616;2022-08-21T01:26:39;3.77;;;3.00;;
7719;SDS011;3902;49.474;8.616;2022-08-21T01:31:34;4.00;;;3.17;;
7719;SDS011;3902;49.474;8.616;2022-08-21T01:34:01;3.67;;;3.30;;
7719;SDS011;3902;49.474;8.616;2022-08-21T01:36:27;4.03;;;3.27;;
7719;SDS011;3902;49.474;8.616;2022-08-21T01:38:53;3.50;;;3.17;;
7719;SDS011;3902;49.474;8.616;2022-08-21T01:41:19;3.83;;;2.83;;
7719;SDS011;3902;49.474;8.616;2022-08-21T01:43:44;3.77;;;3.40;;
7719;SDS011;3902;49.474;8.616;2022-08-21T01:46:10;3.57;;;3.27;;
7719;SDS011;3902;49.474;8.616;2022-08-21T01:48:37;3.17;;;2.87;;
7719;SDS011;3902;49.474;8.616;2022-08-21T01:51:03;3.63;;;3.33;;
7719;SDS011;3902;49.474;8.616;2022-08-21T01:53:29;5.30;;;2.90;;
7719;SDS011;3902;49.474;8.616;2022-08-21T01:55:55;3.43;;;3.13;;
7719;SDS011;3902;49.474;8.616;2022-08-21T01:58:21;3.20;;;2.90;;
7719;SDS011;3902;49.474;8.616;2022-08-21T02:00:46;3.87;;;3.20;;
7719;SDS011;3902;49.474;8.616;2022-08-21T02:03:13;4.93;;;3.60;;
7719;SDS011;3902;49.474;8.616;2022-08-21T02:05:38;4.10;;;3.63;;
7719;SDS011;3902;49.474;8.616;2022-08-21T02:08:05;4.00;;;3.60;;
7719;SDS011;3902;49.474;8.616;2022-08-21T02:10:31;3.53;;;3.13;;
7719;SDS011;3902;49.474;8.616;2022-08-21T02:12:58;4.20;;;2.93;;
7719;SDS011;3902;49.474;8.616;2022-08-21T02:15:25;4.23;;;3.93;;
7719;SDS011;3902;49.474;8.616;2022-08-21T02:17:57;4.40;;;3.10;;
7719;SDS011;3902;49.474;8.616;2022-08-21T02:20:30;3.97;;;3.50;;
7719;SDS011;3902;49.474;8.616;2022-08-21T02:22:57;3.97;;;3.57;;
7719;SDS011;3902;49.474;8.616;2022-08-21T02:25:23;4.03;;;3.60;;
7719;SDS011;3902;49.474;8.616;2022-08-21T02:27:50;4.30;;;3.87;;
7719;SDS011;3902;49.474;8.616;2022-08-21T02:30:18;3.77;;;3.40;;
7719;SDS011;3902;49.474;8.616;2022-08-21T02:32:51;5.73;;;3.40;;
7719;SDS011;3902;49.474;8.616;2022-08-21T02:35:17;4.10;;;3.70;;
7719;SDS011;3902;49.474;8.616;2022-08-21T02:37:51;3.80;;;3.40;;
7719;SDS011;3902;49.474;8.616;2022-08-21T02:40:20;4.60;;;4.20;;
7719;SDS011;3902;49.474;8.616;2022-08-21T02:42:48;4.53;;;4.03;;
7719;SDS011;3902;49.474;8.616;2022-08-21T02:45:15;4.33;;;3.40;;
7719;SDS011;3902;49.474;8.616;2022-08-21T02:47:55;4.20;;;3.70;;
7719;SDS011;3902;49.474;8.616;2022-08-21T02:50:29;4.73;;;3.80;;
7719;SDS011;3902;49.474;8.616;2022-08-21T02:53:04;4.63;;;3.60;;
7719;SDS011;3902;49.474;8.616;2022-08-21T02:55:31;6.00;;;3.43;;
7719;SDS011;3902;49.474;8.616;2022-08-21T02:58:00;4.10;;;3.70;;
7719;SDS011;3902;49.474;8.616;2022-08-21T03:00:28;3.67;;;3.17;;
7719;SDS011;3902;49.474;8.616;2022-08-21T03:02:54;4.13;;;3.73;;
7719;SDS011;3902;49.474;8.616;2022-08-21T03:05:21;3.90;;;3.50;;
7719;SDS011;3902;49.474;8.616;2022-08-21T03:07:48;5.43;;;4.07;;
7719;SDS011;3902;49.474;8.616;2022-08-21T03:10:14;4.00;;;3.60;;
7719;SDS011;3902;49.474;8.616;2022-08-21T03:12:40;3.80;;;3.40;;
7719;SDS011;3902;49.474;8.616;2022-08-21T03:15:07;4.03;;;3.63;;
7719;SDS011;3902;49.474;8.616;2022-08-21T03:17:35;4.43;;;3.77;;
7719;SDS011;3902;49.474;8.616;2022-08-21T03:20:01;4.10;;;3.63;;
7719;SDS011;3902;49.474;8.616;2022-08-21T03:22:28;4.30;;;3.83;;
7719;SDS011;3902;49.474;8.616;2022-08-21T03:24:54;3.93;;;3.60;;
7719;SDS011;3902;49.474;8.616;2022-08-21T03:27:19;3.97;;;3.60;;
7719;SDS011;3902;49.474;8.616;2022-08-21T03:29:45;3.40;;;3.10;;
7719;SDS011;3902;49.474;8.616;2022-08-21T03:32:10;4.37;;;3.97;;
7719;SDS011;3902;49.474;8.616;2022-08-21T03:34:37;4.37;;;3.90;;
7719;SDS011;3902;49.474;8.616;2022-08-21T03:37:03;4.20;;;3.77;;
7719;SDS011;3902;49.474;8.616;2022-08-21T03:39:30;4.40;;;4.00;;
7719;SDS011;3902;49.474;8.616;2022-08-21T03:41:55;4.17;;;3.40;;
7719;SDS011;3902;49.474;8.616;2022-08-21T03:44:21;4.50;;;4.10;;
7719;SDS011;3902;49.474;8.616;2022-08-21T03:46:47;4.10;;;3.80;;
7719;SDS011;3902;49.474;8.616;2022-08-21T03:49:13;4.30;;;3.50;;
7719;SDS011;3902;49.474;8.616;2022-08-21T03:51:39;4.73;;;3.67;;
7719;SDS011;3902;49.474;8.616;2022-08-21T03:54:04;4.17;;;3.77;;
7719;SDS011;3902;49.474;8.616;2022-08-21T03:56:30;4.20;;;3.80;;
7719;SDS011;3902;49.474;8.616;2022-08-21T03:58:56;4.10;;;3.80;;
7719;SDS011;3902;49.474;8.616;2022-08-21T04:01:22;4.20;;;3.80;;
7719;SDS011;3902;49.474;8.616;2022-08-21T04:03:48;4.53;;;3.93;;
7719;SDS011;3902;49.474;8.616;2022-08-21T04:06:13;4.67;;;3.87;;
7719;SDS011;3902;49.474;8.616;2022-08-21T04:08:39;4.37;;;3.93;;
7719;SDS011;3902;49.474;8.616;2022-08-21T04:11:07;4.67;;;4.23;;
7719;SDS011;3902;49.474;8.616;2022-08-21T04:13:35;5.17;;;4.00;;
7719;SDS011;3902;49.474;8.616;2022-08-21T04:16:01;4.70;;;4.10;;
7719;SDS011;3902;49.474;8.616;2022-08-21T04:18:27;4.00;;;3.70;;
7719;SDS011;3902;49.474;8.616;2022-08-21T04:20:54;4.60;;;4.10;;
7719;SDS011;3902;49.474;8.616;2022-08-21T04:23:22;4.10;;;3.47;;
7719;SDS011;3902;49.474;8.616;2022-08-21T04:25:48;5.20;;;3.80;;
7719;SDS011;3902;49.474;8.616;2022-08-21T04:28:13;4.90;;;4.10;;
7719;SDS011;3902;49.474;8.616;2022-08-21T04:30:39;4.20;;;3.80;;
7719;SDS011;3902;49.474;8.616;2022-08-21T04:33:05;4.77;;;4.20;;
7719;SDS011;3902;49.474;8.616;2022-08-21T04:35:31;4.80;;;3.70;;
7719;SDS011;3902;49.474;8.616;2022-08-21T04:37:56;4.37;;;3.97;;
7719;SDS011;3902;49.474;8.616;2022-08-21T04:40:23;4.60;;;4.20;;
7719;SDS011;3902;49.474;8.616;2022-08-21T04:42:57;5.20;;;4.13;;
7719;SDS011;3902;49.474;8.616;2022-08-21T04:45:28;4.67;;;4.10;;
7719;SDS011;3902;49.474;8.616;2022-08-21T04:47:54;3.90;;;3.50;;
7719;SDS011;3902;49.474;8.616;2022-08-21T04:50:26;5.13;;;4.07;;
7719;SDS011;3902;49.474;8.616;2022-08-21T04:52:56;4.97;;;4.47;;
7719;SDS011;3902;49.474;8.616;2022-08-21T04:55:22;4.93;;;4.53;;
7719;SDS011;3902;49.474;8.616;2022-08-21T04:57:49;6.00;;;4.10;;
7719;SDS011;3902;49.474;8.616;2022-08-21T05:00:19;5.30;;;4.80;;
7719;SDS011;3902;49.474;8.616;2022-08-21T05:02:45;4.40;;;4.00;;
7719;SDS011;3902;49.474;8.616;2022-08-21T05:05:12;7.30;;;4.70;;
7719;SDS011;3902;49.474;8.616;2022-08-21T05:07:38;4.80;;;4.27;;
7719;SDS011;3902;49.474;8.616;2022-08-21T05:10:06;4.60;;;4.20;;
7719;SDS011;3902;49.474;8.616;2022-08-21T05:12:33;5.53;;;4.27;;
7719;SDS011;3902;49.474;8.616;2022-08-21T05:14:59;4.50;;;4.10;;
7719;SDS011;3902;49.474;8.616;2022-08-21T05:17:25;4.00;;;3.57;;
7719;SDS011;3902;49.474;8.616;2022-08-21T05:19:50;4.63;;;4.23;;
7719;SDS011;3902;49.474;8.616;2022-08-21T05:22:20;5.47;;;4.20;;
7719;SDS011;3902;49.474;8.616;2022-08-21T05:24:46;8.47;;;4.60;;
7719;SDS011;3902;49.474;8.616;2022-08-21T05:27:12;4.50;;;4.10;;
7719;SDS011;3902;49.474;8.616;2022-08-21T05:29:37;4.40;;;4.00;;
7719;SDS011;3902;49.474;8.616;2022-08-21T05:32:07;4.40;;;4.00;;
7719;SDS011;3902;49.474;8.616;2022-08-21T05:34:34;4.73;;;4.30;;
7719;SDS011;3902;49.474;8.616;2022-08-21T05:37:00;5.47;;;4.27;;
7719;SDS011;3902;49.474;8.616;2022-08-21T05:39:25;4.97;;;4.57;;
7719;SDS011;3902;49.474;8.616;2022-08-21T05:41:51;5.60;;;4.33;;
7719;SDS011;3902;49.474;8.616;2022-08-21T05:44:16;4.40;;;4.00;;
7719;SDS011;3902;49.474;8.616;2022-08-21T05:46:42;4.57;;;4.17;;
7719;SDS011;3902;49.474;8.616;2022-08-21T05:49:07;4.37;;;3.93;;
7719;SDS011;3902;49.474;8.616;2022-08-21T05:51:33;4.87;;;4.37;;
7719;SDS011;3902;49.474;8.616;2022-08-21T05:53:59;6.40;;;5.00;;
7719;SDS011;3902;49.474;8.616;2022-08-21T05:56:24;5.73;;;4.90;;
7719;SDS011;3902;49.474;8.616;2022-08-21T05:58:50;5.40;;;4.43;;
7719;SDS011;3902;49.474;8.616;2022-08-21T06:01:15;4.37;;;3.93;;
7719;SDS011;3902;49.474;8.616;2022-08-21T06:03:41;7.77;;;4.30;;
7719;SDS011;3902;49.474;8.616;2022-08-21T06:06:07;5.67;;;4.53;;
7719;SDS011;3902;49.474;8.616;2022-08-21T06:08:34;6.73;;;4.30;;
7719;SDS011;3902;49.474;8.616;2022-08-21T06:11:00;5.50;;;4.00;;
7719;SDS011;3902;49.474;8.616;2022-08-21T06:13:26;6.50;;;5.07;;
7719;SDS011;3902;49.474;8.616;2022-08-21T06:16:03;4.33;;;3.60;;
7719;SDS011;3902;49.474;8.616;2022-08-21T06:18:32;4.43;;;3.93;;
7719;SDS011;3902;49.474;8.616;2022-08-21T06:20:58;6.10;;;4.80;;
7719;SDS011;3902;49.474;8.616;2022-08-21T06:23:24;5.00;;;4.10;;
7719;SDS011;3902;49.474;8.616;2022-08-21T06:25:49;6.13;;;4.40;;
7719;SDS011;3902;49.474;8.616;2022-08-21T06:28:15;6.63;;;3.80;;
7719;SDS011;3902;49.474;8.616;2022-08-21T06:30:40;4.20;;;3.90;;
7719;SDS011;3902;49.474;8.616;2022-08-21T06:33:06;5.67;;;4.40;;
7719;SDS011;3902;49.474;8.616;2022-08-21T06:35:32;4.73;;;3.77;;
7719;SDS011;3902;49.474;8.616;2022-08-21T06:37:58;4.90;;;4.20;;
7719;SDS011;3902;49.474;8.616;2022-08-21T06:40:25;7.00;;;4.20;;
7719;SDS011;3902;49.474;8.616;2022-08-21T06:42:51;4.70;;;3.87;;
7719;SDS011;3902;49.474;8.616;2022-08-21T06:45:17;5.73;;;3.80;;
7719;SDS011;3902;49.474;8.616;2022-08-21T06:47:42;5.90;;;3.90;;
7719;SDS011;3902;49.474;8.616;2022-08-21T06:50:08;5.97;;;4.60;;
7719;SDS011;3902;49.474;8.616;2022-08-21T06:52:35;5.80;;;4.40;;
7719;SDS011;3902;49.474;8.616;2022-08-21T06:55:01;8.23;;;5.00;;
7719;SDS011;3902;49.474;8.616;2022-08-21T06:57:27;6.30;;;4.60;;
7719;SDS011;3902;49.474;8.616;2022-08-21T06:59:53;6.10;;;4.17;;
7719;SDS011;3902;49.474;8.616;2022-08-21T07:02:19;4.80;;;4.03;;
7719;SDS011;3902;49.474;8.616;2022-08-21T07:04:44;6.50;;;4.37;;
7719;SDS011;3902;49.474;8.616;2022-08-21T07:07:10;6.90;;;4.60;;
7719;SDS011;3902;49.474;8.616;2022-08-21T07:09:35;5.13;;;3.67;;
7719;SDS011;3902;49.474;8.616;2022-08-21T07:12:01;8.20;;;4.03;;
7719;SDS011;3902;49.474;8.616;2022-08-21T07:14:27;6.63;;;4.10;;
7719;SDS011;3902;49.474;8.616;2022-08-21T07:16:53;6.13;;;4.73;;
7719;SDS011;3902;49.474;8.616;2022-08-21T07:19:19;6.10;;;4.33;;
7719;SDS011;3902;49.474;8.616;2022-08-21T07:21:45;4.80;;;4.07;;
7719;SDS011;3902;49.474;8.616;2022-08-21T07:24:11;6.27;;;4.60;;
7719;SDS011;3902;49.474;8.616;2022-08-21T07:26:37;6.57;;;4.57;;
7719;SDS011;3902;49.474;8.616;2022-08-21T07:29:03;6.50;;;3.83;;
7719;SDS011;3902;49.474;8.616;2022-08-21T07:31:29;5.63;;;3.73;;
7719;SDS011;3902;49.474;8.616;2022-08-21T07:33:54;7.70;;;4.10;;
7719;SDS011;3902;49.474;8.616;2022-08-21T07:36:20;7.10;;;4.20;;
7719;SDS011;3902;49.474;8.616;2022-08-21T07:38:46;6.97;;;4.20;;
7719;SDS011;3902;49.474;8.616;2022-08-21T07:41:20;4.87;;;4.00;;
7719;SDS011;3902;49.474;8.616;2022-08-21T07:43:47;6.20;;;4.30;;
7719;SDS011;3902;49.474;8.616;2022-08-21T07:46:13;5.40;;;3.73;;
7719;SDS011;3902;49.474;8.616;2022-08-21T07:48:39;8.27;;;4.20;;
7719;SDS011;3902;49.474;8.616;2022-08-21T07:51:08;5.30;;;3.53;;
7719;SDS011;3902;49.474;8.616;2022-08-21T07:53:37;5.30;;;3.53;;
7719;SDS011;3902;49.474;8.616;2022-08-21T07:56:03;4.87;;;3.30;;
7719;SDS011;3902;49.474;8.616;2022-08-21T07:58:30;5.47;;;3.83;;
7719;SDS011;3902;49.474;8.616;2022-08-21T08:00:56;4.67;;;3.50;;
7719;SDS011;3902;49.474;8.616;2022-08-21T08:03:22;4.07;;;3.23;;
7719;SDS011;3902;49.474;8.616;2022-08-21T08:05:48;7.93;;;4.00;;
7719;SDS011;3902;49.474;8.616;2022-08-21T08:08:13;5.17;;;3.30;;
7719;SDS011;3902;49.474;8.616;2022-08-21T08:10:39;4.47;;;3.07;;
7719;SDS011;3902;49.474;8.616;2022-08-21T08:13:05;5.53;;;3.50;;
7719;SDS011;3902;49.474;8.616;2022-08-21T08:15:31;5.10;;;3.50;;
7719;SDS011;3902;49.474;8.616;2022-08-21T08:17:56;4.43;;;3.30;;
7719;SDS011;3902;49.474;8.616;2022-08-21T08:20:22;3.63;;;3.20;;
7719;SDS011;3902;49.474;8.616;2022-08-21T08:22:50;3.10;;;2.80;;
7719;SDS011;3902;49.474;8.616;2022-08-21T08:25:16;8.73;;;3.90;;
7719;SDS011;3902;49.474;8.616;2022-08-21T08:27:43;3.50;;;3.20;;
7719;SDS011;3902;49.474;8.616;2022-08-21T08:30:09;5.77;;;2.83;;
7719;SDS011;3902;49.474;8.616;2022-08-21T08:32:36;4.87;;;3.57;;
7719;SDS011;3902;49.474;8.616;2022-08-21T08:35:03;6.87;;;3.40;;
7719;SDS011;3902;49.474;8.616;2022-08-21T08:37:29;5.70;;;3.37;;
7719;SDS011;3902;49.474;8.616;2022-08-21T08:39:55;5.77;;;3.60;;
7719;SDS011;3902;49.474;8.616;2022-08-21T08:44:55;4.97;;;4.23;;
7719;SDS011;3902;49.474;8.616;2022-08-21T08:47:31;5.20;;;4.23;;
7719;SDS011;3902;49.474;8.616;2022-08-21T08:50:07;6.03;;;4.40;;
7719;SDS011;3902;49.474;8.616;2022-08-21T08:55:51;7.60;;;4.50;;
7719;SDS011;3902;49.474;8.616;2022-08-21T08:58:22;7.67;;;5.30;;
7719;SDS011;3902;49.474;8.616;2022-08-21T09:00:52;6.00;;;4.57;;
7719;SDS011;3902;49.474;8.616;2022-08-21T09:03:18;8.50;;;5.00;;
7719;SDS011;3902;49.474;8.616;2022-08-21T09:05:48;9.43;;;6.30;;
7719;SDS011;3902;49.474;8.616;2022-08-21T09:08:42;10.20;;;6.83;;
7719;SDS011;3902;49.474;8.616;2022-08-21T09:11:26;9.77;;;6.97;;
7719;SDS011;3902;49.474;8.616;2022-08-21T09:14:15;10.83;;;5.90;;
7719;SDS011;3902;49.474;8.616;2022-08-21T09:16:56;8.33;;;6.50;;
7719;SDS011;3902;49.474;8.616;2022-08-21T09:19:46;8.07;;;5.63;;
7719;SDS011;3902;49.474;8.616;2022-08-21T09:25:22;11.30;;;6.00;;
7719;SDS011;3902;49.474;8.616;2022-08-21T09:27:51;12.37;;;7.20;;
7719;SDS011;3902;49.474;8.616;2022-08-21T09:30:18;7.80;;;5.80;;
7719;SDS011;3902;49.474;8.616;2022-08-21T09:32:48;7.37;;;5.00;;
7719;SDS011;3902;49.474;8.616;2022-08-21T09:35:18;6.07;;;4.60;;
7719;SDS011;3902;49.474;8.616;2022-08-21T09:42:57;7.83;;;4.73;;
7719;SDS011;3902;49.474;8.616;2022-08-21T09:45:28;5.60;;;4.17;;
7719;SDS011;3902;49.474;8.616;2022-08-21T09:47:54;5.60;;;4.60;;
7719;SDS011;3902;49.474;8.616;2022-08-21T09:50:23;5.70;;;4.17;;
7719;SDS011;3902;49.474;8.616;2022-08-21T09:52:55;7.27;;;3.80;;
7719;SDS011;3902;49.474;8.616;2022-08-21T09:58:39;8.10;;;5.47;;
7719;SDS011;3902;49.474;8.616;2022-08-21T10:01:11;10.53;;;4.90;;
7719;SDS011;3902;49.474;8.616;2022-08-21T10:03:42;8.73;;;4.63;;
7719;SDS011;3902;49.474;8.616;2022-08-21T10:06:09;7.63;;;4.50;;
7719;SDS011;3902;49.474;8.616;2022-08-21T10:08:46;5.70;;;4.10;;
7719;SDS011;3902;49.474;8.616;2022-08-21T10:11:13;6.10;;;3.60;;
7719;SDS011;3902;49.474;8.616;2022-08-21T10:16:24;6.20;;;3.80;;
7719;SDS011;3902;49.474;8.616;2022-08-21T10:19:22;5.43;;;4.00;;
7719;SDS011;3902;49.474;8.616;2022-08-21T10:22:07;5.47;;;3.37;;
7719;SDS011;3902;49.474;8.616;2022-08-21T10:30:28;5.97;;;3.70;;
7719;SDS011;3902;49.474;8.616;2022-08-21T10:36:13;5.50;;;3.57;;
7719;SDS011;3902;49.474;8.616;2022-08-21T10:39:13;7.77;;;3.90;;
7719;SDS011;3902;49.474;8.616;2022-08-21T10:44:35;6.30;;;3.70;;
7719;SDS011;3902;49.474;8.616;2022-08-21T10:47:15;7.57;;;3.53;;
7719;SDS011;3902;49.474;8.616;2022-08-21T10:49:52;3.87;;;3.33;;
7719;SDS011;3902;49.474;8.616;2022-08-21T10:58:05;7.87;;;3.47;;
7719;SDS011;3902;49.474;8.616;2022-08-21T11:00:39;10.00;;;4.00;;
7719;SDS011;3902;49.474;8.616;2022-08-21T11:05:53;10.17;;;4.07;;
7719;SDS011;3902;49.474;8.616;2022-08-21T11:08:39;5.13;;;3.00;;
7719;SDS011;3902;49.474;8.616;2022-08-21T11:11:12;6.33;;;3.50;;
7719;SDS011;3902;49.474;8.616;2022-08-21T11:14:01;6.70;;;3.37;;
7719;SDS011;3902;49.474;8.616;2022-08-21T11:16:36;6.33;;;3.87;;
7719;SDS011;3902;49.474;8.616;2022-08-21T11:19:17;7.17;;;3.70;;
7719;SDS011;3902;49.474;8.616;2022-08-21T11:21:53;5.60;;;4.07;;
7719;SDS011;3902;49.474;8.616;2022-08-21T11:27:21;5.60;;;3.83;;
7719;SDS011;3902;49.474;8.616;2022-08-21T11:29:56;5.90;;;3.20;;
7719;SDS011;3902;49.474;8.616;2022-08-21T11:35:22;4.32;;;3.08;;
7719;SDS011;3902;49.474;8.616;2022-08-21T11:43:46;4.88;;;3.03;;
7719;SDS011;3902;49.474;8.616;2022-08-21T11:46:29;6.20;;;3.45;;
7719;SDS011;3902;49.474;8.616;2022-08-21T11:52:19;5.45;;;3.35;;
7719;SDS011;3902;49.474;8.616;2022-08-21T11:57:27;5.75;;;3.70;;
7719;SDS011;3902;49.474;8.616;2022-08-21T12:00:03;6.60;;;3.25;;
7719;SDS011;3902;49.474;8.616;2022-08-21T12:02:34;6.05;;;3.10;;
7719;SDS011;3902;49.474;8.616;2022-08-21T12:05:03;5.80;;;3.20;;
7719;SDS011;3902;49.474;8.616;2022-08-21T12:07:39;6.90;;;3.28;;
7719;SDS011;3902;49.474;8.616;2022-08-21T12:10:14;3.78;;;2.78;;
7719;SDS011;3902;49.474;8.616;2022-08-21T12:12:47;3.83;;;2.83;;
7719;SDS011;3902;49.474;8.616;2022-08-21T12:20:58;3.05;;;2.35;;
7719;SDS011;3902;49.474;8.616;2022-08-21T12:23:43;4.75;;;2.45;;
7719;SDS011;3902;49.474;8.616;2022-08-21T12:26:27;3.63;;;2.53;;
7719;SDS011;3902;49.474;8.616;2022-08-21T12:29:15;3.40;;;2.80;;
7719;SDS011;3902;49.474;8.616;2022-08-21T12:34:16;4.28;;;2.85;;
7719;SDS011;3902;49.474;8.616;2022-08-21T12:36:48;4.82;;;3.55;;
7719;SDS011;3902;49.474;8.616;2022-08-21T12:39:27;3.30;;;3.00;;
7719;SDS011;3902;49.474;8.616;2022-08-21T12:41:58;4.70;;;3.28;;
7719;SDS011;3902;49.474;8.616;2022-08-21T12:44:49;5.32;;;3.17;;
7719;SDS011;3902;49.474;8.616;2022-08-21T12:48:06;3.63;;;2.72;;
7719;SDS011;3902;49.474;8.616;2022-08-21T12:50:19;3.38;;;2.90;;
7719;SDS011;3902;49.474;8.616;2022-08-21T12:53:05;5.18;;;3.20;;
7719;SDS011;3902;49.474;8.616;2022-08-21T12:55:40;3.72;;;2.95;;
7719;SDS011;3902;49.474;8.616;2022-08-21T12:58:16;5.13;;;2.90;;
7719;SDS011;3902;49.474;8.616;2022-08-21T13:00:53;6.75;;;3.30;;
7719;SDS011;3902;49.474;8.616;2022-08-21T13:03:37;2.60;;;2.40;;
7719;SDS011;3902;49.474;8.616;2022-08-21T13:06:04;4.47;;;2.83;;
7719;SDS011;3902;49.474;8.616;2022-08-21T13:08:30;4.55;;;3.05;;
7719;SDS011;3902;49.474;8.616;2022-08-21T13:11:01;2.90;;;2.70;;
7719;SDS011;3902;49.474;8.616;2022-08-21T13:13:29;3.92;;;3.30;;
7719;SDS011;3902;49.474;8.616;2022-08-21T13:16:03;5.75;;;3.85;;
7719;SDS011;3902;49.474;8.616;2022-08-21T13:18:31;4.65;;;3.50;;
7719;SDS011;3902;49.474;8.616;2022-08-21T13:21:05;5.18;;;3.70;;
7719;SDS011;3902;49.474;8.616;2022-08-21T13:23:33;7.18;;;3.47;;
7719;SDS011;3902;49.474;8.616;2022-08-21T13:25:58;7.32;;;3.70;;
7719;SDS011;3902;49.474;8.616;2022-08-21T13:28:31;3.83;;;3.00;;
7719;SDS011;3902;49.474;8.616;2022-08-21T13:30:58;3.15;;;2.85;;
7719;SDS011;3902;49.474;8.616;2022-08-21T13:33:26;4.90;;;2.88;;
7719;SDS011;3902;49.474;8.616;2022-08-21T13:38:22;3.88;;;2.78;;
7719;SDS011;3902;49.474;8.616;2022-08-21T13:40:51;5.00;;;3.00;;
7719;SDS011;3902;49.474;8.616;2022-08-21T13:43:25;5.60;;;3.00;;
7719;SDS011;3902;49.474;8.616;2022-08-21T13:45:54;5.75;;;3.75;;
7719;SDS011;3902;49.474;8.616;2022-08-21T13:48:21;6.15;;;3.30;;
7719;SDS011;3902;49.474;8.616;2022-08-21T13:50:50;3.63;;;3.33;;
7719;SDS011;3902;49.474;8.616;2022-08-21T13:55:59;4.18;;;2.95;;
7719;SDS011;3902;49.474;8.616;2022-08-21T13:58:30;6.72;;;3.30;;
7719;SDS011;3902;49.474;8.616;2022-08-21T14:00:58;3.65;;;3.10;;
7719;SDS011;3902;49.474;8.616;2022-08-21T14:03:27;4.35;;;2.80;;
7719;SDS011;3902;49.474;8.616;2022-08-21T14:06:24;4.03;;;2.85;;
7719;SDS011;3902;49.474;8.616;2022-08-21T14:08:56;3.70;;;3.28;;
7719;SDS011;3902;49.474;8.616;2022-08-21T14:11:26;3.80;;;2.80;;
7719;SDS011;3902;49.474;8.616;2022-08-21T14:13:58;4.47;;;3.10;;
7719;SDS011;3902;49.474;8.616;2022-08-21T14:16:28;3.85;;;2.80;;
7719;SDS011;3902;49.474;8.616;2022-08-21T14:19:22;4.57;;;3.03;;
7719;SDS011;3902;49.474;8.616;2022-08-21T14:21:51;4.13;;;2.90;;
7719;SDS011;3902;49.474;8.616;2022-08-21T14:26:52;4.22;;;3.00;;
7719;SDS011;3902;49.474;8.616;2022-08-21T14:29:21;3.92;;;3.33;;
7719;SDS011;3902;49.474;8.616;2022-08-21T14:31:50;3.85;;;3.38;;
7719;SDS011;3902;49.474;8.616;2022-08-21T14:34:17;4.57;;;2.92;;
7719;SDS011;3902;49.474;8.616;2022-08-21T14:36:43;5.40;;;3.33;;
7719;SDS011;3902;49.474;8.616;2022-08-21T14:39:09;3.47;;;2.80;;
7719;SDS011;3902;49.474;8.616;2022-08-21T14:41:34;3.53;;;2.88;;
7719;SDS011;3902;49.474;8.616;2022-08-21T14:44:01;3.35;;;2.72;;
7719;SDS011;3902;49.474;8.616;2022-08-21T14:46:28;3.22;;;2.90;;
7719;SDS011;3902;49.474;8.616;2022-08-21T14:48:56;3.45;;;2.53;;
7719;SDS011;3902;49.474;8.616;2022-08-21T14:51:23;3.55;;;2.72;;
7719;SDS011;3902;49.474;8.616;2022-08-21T14:53:48;3.10;;;2.80;;
7719;SDS011;3902;49.474;8.616;2022-08-21T14:56:14;3.70;;;2.90;;
7719;SDS011;3902;49.474;8.616;2022-08-21T14:58:44;4.05;;;2.42;;
7719;SDS011;3902;49.474;8.616;2022-08-21T15:01:13;3.92;;;3.05;;
7719;SDS011;3902;49.474;8.616;2022-08-21T15:03:40;3.92;;;2.72;;
7719;SDS011;3902;49.474;8.616;2022-08-21T15:06:07;3.25;;;2.95;;
7719;SDS011;3902;49.474;8.616;2022-08-21T15:08:33;5.20;;;2.72;;
7719;SDS011;3902;49.474;8.616;2022-08-21T15:11:00;3.35;;;2.70;;
7719;SDS011;3902;49.474;8.616;2022-08-21T15:13:27;3.00;;;2.78;;
7719;SDS011;3902;49.474;8.616;2022-08-21T15:15:53;4.05;;;2.65;;
7719;SDS011;3902;49.474;8.616;2022-08-21T15:18:21;4.32;;;2.83;;
7719;SDS011;3902;49.474;8.616;2022-08-21T15:20:47;3.85;;;2.92;;
7719;SDS011;3902;49.474;8.616;2022-08-21T15:23:13;3.17;;;2.70;;
7719;SDS011;3902;49.474;8.616;2022-08-21T15:25:40;3.30;;;2.67;;
7719;SDS011;3902;49.474;8.616;2022-08-21T15:28:07;3.45;;;2.97;;
7719;SDS011;3902;49.474;8.616;2022-08-21T15:30:33;3.92;;;3.35;;
7719;SDS011;3902;49.474;8.616;2022-08-21T15:33:00;4.95;;;3.45;;
7719;SDS011;3902;49.474;8.616;2022-08-21T15:35:25;3.33;;;2.80;;
7719;SDS011;3902;49.474;8.616;2022-08-21T15:37:51;3.47;;;2.70;;
7719;SDS011;3902;49.474;8.616;2022-08-21T15:40:16;3.58;;;2.75;;
7719;SDS011;3902;49.474;8.616;2022-08-21T15:42:42;3.83;;;2.60;;
7719;SDS011;3902;49.474;8.616;2022-08-21T15:45:09;3.28;;;2.97;;
7719;SDS011;3902;49.474;8.616;2022-08-21T15:47:36;4.07;;;3.13;;
7719;SDS011;3902;49.474;8.616;2022-08-21T15:50:05;2.60;;;2.40;;
7719;SDS011;3902;49.474;8.616;2022-08-21T15:52:32;2.80;;;2.35;;
7719;SDS011;3902;49.474;8.616;2022-08-21T15:54:58;3.20;;;2.78;;
7719;SDS011;3902;49.474;8.616;2022-08-21T15:57:24;3.95;;;3.10;;
7719;SDS011;3902;49.474;8.616;2022-08-21T15:59:51;5.50;;;2.85;;
7719;SDS011;3902;49.474;8.616;2022-08-21T16:02:36;3.50;;;2.83;;
7719;SDS011;3902;49.474;8.616;2022-08-21T16:05:02;4.15;;;2.58;;
7719;SDS011;3902;49.474;8.616;2022-08-21T16:07:28;4.20;;;3.50;;
7719;SDS011;3902;49.474;8.616;2022-08-21T16:09:53;3.83;;;3.08;;
7719;SDS011;3902;49.474;8.616;2022-08-21T16:12:27;7.43;;;3.00;;
7719;SDS011;3902;49.474;8.616;2022-08-21T16:14:56;3.63;;;3.33;;
7719;SDS011;3902;49.474;8.616;2022-08-21T16:17:25;4.37;;;2.90;;
7719;SDS011;3902;49.474;8.616;2022-08-21T16:19:56;3.67;;;2.50;;
7719;SDS011;3902;49.474;8.616;2022-08-21T16:22:22;3.37;;;2.90;;
7719;SDS011;3902;49.474;8.616;2022-08-21T16:24:48;5.87;;;3.33;;
7719;SDS011;3902;49.474;8.616;2022-08-21T16:27:13;4.70;;;2.63;;
7719;SDS011;3902;49.474;8.616;2022-08-21T16:29:41;3.80;;;3.13;;
7719;SDS011;3902;49.474;8.616;2022-08-21T16:32:07;3.10;;;2.60;;
7719;SDS011;3902;49.474;8.616;2022-08-21T16:34:32;3.83;;;2.87;;
7719;SDS011;3902;49.474;8.616;2022-08-21T16:36:59;3.10;;;2.80;;
7719;SDS011;3902;49.474;8.616;2022-08-21T16:39:24;3.80;;;2.80;;
7719;SDS011;3902;49.474;8.616;2022-08-21T16:41:50;9.03;;;2.80;;